Arlington, Minnesota
Current Conditions -  °F | °C
As of 7:34 AM on Friday 31 Oct 2014 (Local Time) from KGYL Reporting Station
Clear Clear  
Wind Chill: 18°   Ceiling: Unl
Heat Index: 24°   Visibility: 10mi
Dew Point: 19°   Wind: 5mph
Humidity: 82%   Direction: 340°NNW
Pressure: 30.51"   Gusts: NA
Location:  44.61°N, 94.08°W
Report Text: KGYL 311234Z AUTO 34004KT 10SM CLR M05/M07 A3051 RMK AO2 T10471073
Loading
Personal Weather Stations






























Interactive Weather Map
Tropical Storm Tracking
New forecast layout! Learn more

10-Day Weather Forecast

Advertisements
Track Severe Weather on mobile